sensor_id;sensor_type;location;lat;lon;timestamp;temperature;humidity
14188;DHT22;7175;51.978;5.330;2024-01-30T00:00:17;8.20;99.90
14188;DHT22;7175;51.978;5.330;2024-01-30T00:02:47;8.10;99.90
14188;DHT22;7175;51.978;5.330;2024-01-30T00:05:15;8.20;99.90
14188;DHT22;7175;51.978;5.330;2024-01-30T00:07:43;8.20;99.90
14188;DHT22;7175;51.978;5.330;2024-01-30T00:10:11;8.20;99.90
14188;DHT22;7175;51.978;5.330;2024-01-30T00:12:39;8.20;99.90
14188;DHT22;7175;51.978;5.330;2024-01-30T00:15:08;8.20;99.90
14188;DHT22;7175;51.978;5.330;2024-01-30T00:17:36;8.20;99.90
14188;DHT22;7175;51.978;5.330;2024-01-30T00:20:07;8.20;99.90
14188;DHT22;7175;51.978;5.330;2024-01-30T00:22:36;8.10;99.90
14188;DHT22;7175;51.978;5.330;2024-01-30T00:25:04;8.00;99.90
14188;DHT22;7175;51.978;5.330;2024-01-30T00:27:32;8.10;99.90
14188;DHT22;7175;51.978;5.330;2024-01-30T00:30:00;8.10;99.90
14188;DHT22;7175;51.978;5.330;2024-01-30T00:32:29;8.10;99.90
14188;DHT22;7175;51.978;5.330;2024-01-30T00:34:56;8.00;99.90
14188;DHT22;7175;51.978;5.330;2024-01-30T00:37:26;8.00;99.90
14188;DHT22;7175;51.978;5.330;2024-01-30T00:39:54;8.00;99.90
14188;DHT22;7175;51.978;5.330;2024-01-30T00:42:22;8.00;99.90
14188;DHT22;7175;51.978;5.330;2024-01-30T00:44:50;8.10;99.90
14188;DHT22;7175;51.978;5.330;2024-01-30T00:47:18;8.00;99.90
14188;DHT22;7175;51.978;5.330;2024-01-30T00:49:46;8.00;99.90
14188;DHT22;7175;51.978;5.330;2024-01-30T00:52:14;8.10;99.90
14188;DHT22;7175;51.978;5.330;2024-01-30T00:54:44;8.00;99.90
14188;DHT22;7175;51.978;5.330;2024-01-30T00:57:12;8.10;99.90
14188;DHT22;7175;51.978;5.330;2024-01-30T00:59:40;8.00;99.90
14188;DHT22;7175;51.978;5.330;2024-01-30T01:02:08;8.00;99.90
14188;DHT22;7175;51.978;5.330;2024-01-30T01:04:35;8.00;99.90
14188;DHT22;7175;51.978;5.330;2024-01-30T01:07:04;8.00;99.90
14188;DHT22;7175;51.978;5.330;2024-01-30T01:09:32;8.00;99.90
14188;DHT22;7175;51.978;5.330;2024-01-30T01:12:01;8.00;99.90
14188;DHT22;7175;51.978;5.330;2024-01-30T01:14:29;7.90;99.90
14188;DHT22;7175;51.978;5.330;2024-01-30T01:16:58;7.90;99.90
14188;DHT22;7175;51.978;5.330;2024-01-30T01:19:25;7.90;99.90
14188;DHT22;7175;51.978;5.330;2024-01-30T01:21:54;7.90;99.90
14188;DHT22;7175;51.978;5.330;2024-01-30T01:24:22;7.90;99.90
14188;DHT22;7175;51.978;5.330;2024-01-30T01:26:50;7.90;99.90
14188;DHT22;7175;51.978;5.330;2024-01-30T01:29:19;7.90;99.90
14188;DHT22;7175;51.978;5.330;2024-01-30T01:31:47;7.90;99.90
14188;DHT22;7175;51.978;5.330;2024-01-30T01:34:15;7.90;99.90
14188;DHT22;7175;51.978;5.330;2024-01-30T01:36:43;7.90;99.90
14188;DHT22;7175;51.978;5.330;2024-01-30T01:39:11;7.80;99.90
14188;DHT22;7175;51.978;5.330;2024-01-30T01:41:39;7.90;99.90
14188;DHT22;7175;51.978;5.330;2024-01-30T01:44:07;7.90;99.90
14188;DHT22;7175;51.978;5.330;2024-01-30T01:46:37;7.90;99.90
14188;DHT22;7175;51.978;5.330;2024-01-30T01:49:05;7.80;99.90
14188;DHT22;7175;51.978;5.330;2024-01-30T01:51:34;7.90;99.90
14188;DHT22;7175;51.978;5.330;2024-01-30T01:54:04;7.80;99.90
14188;DHT22;7175;51.978;5.330;2024-01-30T01:56:33;7.80;99.90
14188;DHT22;7175;51.978;5.330;2024-01-30T01:59:05;7.90;99.90
14188;DHT22;7175;51.978;5.330;2024-01-30T02:01:36;7.90;99.90
14188;DHT22;7175;51.978;5.330;2024-01-30T02:04:05;7.90;99.90
14188;DHT22;7175;51.978;5.330;2024-01-30T02:06:33;8.00;99.90
14188;DHT22;7175;51.978;5.330;2024-01-30T02:09:01;8.00;99.90
14188;DHT22;7175;51.978;5.330;2024-01-30T02:11:32;8.00;99.90
14188;DHT22;7175;51.978;5.330;2024-01-30T02:14:02;8.00;99.90
14188;DHT22;7175;51.978;5.330;2024-01-30T02:16:30;8.00;99.90
14188;DHT22;7175;51.978;5.330;2024-01-30T02:19:00;7.90;99.90
14188;DHT22;7175;51.978;5.330;2024-01-30T02:21:29;7.90;99.90
14188;DHT22;7175;51.978;5.330;2024-01-30T02:23:58;7.90;99.90
14188;DHT22;7175;51.978;5.330;2024-01-30T02:26:27;7.80;99.90
14188;DHT22;7175;51.978;5.330;2024-01-30T02:28:55;7.80;99.90
14188;DHT22;7175;51.978;5.330;2024-01-30T02:31:25;7.80;99.90
14188;DHT22;7175;51.978;5.330;2024-01-30T02:33:53;7.80;99.90
14188;DHT22;7175;51.978;5.330;2024-01-30T02:36:21;7.80;99.90
14188;DHT22;7175;51.978;5.330;2024-01-30T02:38:50;7.80;99.90
14188;DHT22;7175;51.978;5.330;2024-01-30T02:41:18;7.80;99.90
14188;DHT22;7175;51.978;5.330;2024-01-30T02:43:46;7.80;99.90
14188;DHT22;7175;51.978;5.330;2024-01-30T02:46:14;7.70;99.90
14188;DHT22;7175;51.978;5.330;2024-01-30T02:48:42;7.80;99.90
14188;DHT22;7175;51.978;5.330;2024-01-30T02:51:10;7.80;99.90
14188;DHT22;7175;51.978;5.330;2024-01-30T02:53:38;7.80;99.90
14188;DHT22;7175;51.978;5.330;2024-01-30T02:56:07;7.80;99.90
14188;DHT22;7175;51.978;5.330;2024-01-30T02:58:36;7.80;99.90
14188;DHT22;7175;51.978;5.330;2024-01-30T03:01:05;7.80;99.90
14188;DHT22;7175;51.978;5.330;2024-01-30T03:03:33;7.80;99.90
14188;DHT22;7175;51.978;5.330;2024-01-30T03:06:03;7.70;99.90
14188;DHT22;7175;51.978;5.330;2024-01-30T03:08:31;7.70;99.90
14188;DHT22;7175;51.978;5.330;2024-01-30T03:10:59;7.80;99.90
14188;DHT22;7175;51.978;5.330;2024-01-30T03:13:28;7.80;99.90
14188;DHT22;7175;51.978;5.330;2024-01-30T03:15:56;7.80;99.90
14188;DHT22;7175;51.978;5.330;2024-01-30T03:18:24;7.80;99.90
14188;DHT22;7175;51.978;5.330;2024-01-30T03:20:52;7.80;99.90
14188;DHT22;7175;51.978;5.330;2024-01-30T03:23:20;7.80;99.90
14188;DHT22;7175;51.978;5.330;2024-01-30T03:25:48;7.80;99.90
14188;DHT22;7175;51.978;5.330;2024-01-30T03:28:16;7.80;99.90
14188;DHT22;7175;51.978;5.330;2024-01-30T03:30:45;7.80;99.90
14188;DHT22;7175;51.978;5.330;2024-01-30T03:33:13;7.80;99.90
14188;DHT22;7175;51.978;5.330;2024-01-30T03:35:41;7.80;99.90
14188;DHT22;7175;51.978;5.330;2024-01-30T03:38:09;7.80;99.90
14188;DHT22;7175;51.978;5.330;2024-01-30T03:40:37;7.80;99.90
14188;DHT22;7175;51.978;5.330;2024-01-30T03:43:05;7.80;99.90
14188;DHT22;7175;51.978;5.330;2024-01-30T03:45:33;7.90;99.90
14188;DHT22;7175;51.978;5.330;2024-01-30T03:48:03;7.80;99.90
14188;DHT22;7175;51.978;5.330;2024-01-30T03:50:31;7.90;99.90
14188;DHT22;7175;51.978;5.330;2024-01-30T03:52:59;7.90;99.90
14188;DHT22;7175;51.978;5.330;2024-01-30T03:55:27;7.90;99.90
14188;DHT22;7175;51.978;5.330;2024-01-30T03:57:55;7.90;99.90
14188;DHT22;7175;51.978;5.330;2024-01-30T04:00:23;7.90;99.90
14188;DHT22;7175;51.978;5.330;2024-01-30T04:02:51;8.00;99.90
14188;DHT22;7175;51.978;5.330;2024-01-30T04:05:20;8.00;99.90
14188;DHT22;7175;51.978;5.330;2024-01-30T04:07:48;7.90;99.90
14188;DHT22;7175;51.978;5.330;2024-01-30T04:10:16;8.00;99.90
14188;DHT22;7175;51.978;5.330;2024-01-30T04:12:44;7.90;99.90
14188;DHT22;7175;51.978;5.330;2024-01-30T04:15:13;7.90;99.90
14188;DHT22;7175;51.978;5.330;2024-01-30T04:17:41;7.90;99.90
14188;DHT22;7175;51.978;5.330;2024-01-30T04:20:13;7.90;99.90
14188;DHT22;7175;51.978;5.330;2024-01-30T04:22:44;7.90;99.90
14188;DHT22;7175;51.978;5.330;2024-01-30T04:25:13;7.90;99.90
14188;DHT22;7175;51.978;5.330;2024-01-30T04:27:41;7.90;99.90
14188;DHT22;7175;51.978;5.330;2024-01-30T04:30:10;7.90;99.90
14188;DHT22;7175;51.978;5.330;2024-01-30T04:32:38;7.80;99.90
14188;DHT22;7175;51.978;5.330;2024-01-30T04:35:06;7.90;99.90
14188;DHT22;7175;51.978;5.330;2024-01-30T04:37:38;7.80;99.90
14188;DHT22;7175;51.978;5.330;2024-01-30T04:40:08;7.90;99.90
14188;DHT22;7175;51.978;5.330;2024-01-30T04:42:36;7.90;99.90
14188;DHT22;7175;51.978;5.330;2024-01-30T04:45:05;7.90;99.90
14188;DHT22;7175;51.978;5.330;2024-01-30T04:47:33;7.90;99.90
14188;DHT22;7175;51.978;5.330;2024-01-30T04:50:02;7.90;99.90
14188;DHT22;7175;51.978;5.330;2024-01-30T04:52:31;7.90;99.90
14188;DHT22;7175;51.978;5.330;2024-01-30T04:54:59;8.00;99.90
14188;DHT22;7175;51.978;5.330;2024-01-30T04:57:29;7.90;99.90
14188;DHT22;7175;51.978;5.330;2024-01-30T04:59:57;7.90;99.90
14188;DHT22;7175;51.978;5.330;2024-01-30T05:02:25;8.00;99.90
14188;DHT22;7175;51.978;5.330;2024-01-30T05:04:53;7.90;99.90
14188;DHT22;7175;51.978;5.330;2024-01-30T05:07:21;8.00;99.90
14188;DHT22;7175;51.978;5.330;2024-01-30T05:09:49;8.00;99.90
14188;DHT22;7175;51.978;5.330;2024-01-30T05:12:19;8.00;99.90
14188;DHT22;7175;51.978;5.330;2024-01-30T05:14:48;8.00;99.90
14188;DHT22;7175;51.978;5.330;2024-01-30T05:17:16;8.00;99.90
14188;DHT22;7175;51.978;5.330;2024-01-30T05:19:44;8.00;99.90
14188;DHT22;7175;51.978;5.330;2024-01-30T05:22:12;8.10;99.90
14188;DHT22;7175;51.978;5.330;2024-01-30T05:24:42;8.10;99.90
14188;DHT22;7175;51.978;5.330;2024-01-30T05:27:10;8.10;99.90
14188;DHT22;7175;51.978;5.330;2024-01-30T05:29:40;8.10;99.90
14188;DHT22;7175;51.978;5.330;2024-01-30T05:32:09;8.10;99.90
14188;DHT22;7175;51.978;5.330;2024-01-30T05:34:37;8.10;99.90
14188;DHT22;7175;51.978;5.330;2024-01-30T05:37:05;8.10;99.90
14188;DHT22;7175;51.978;5.330;2024-01-30T05:39:34;8.10;99.90
14188;DHT22;7175;51.978;5.330;2024-01-30T05:42:02;8.20;99.90
14188;DHT22;7175;51.978;5.330;2024-01-30T05:44:31;8.20;99.90
14188;DHT22;7175;51.978;5.330;2024-01-30T05:46:58;8.20;99.90
14188;DHT22;7175;51.978;5.330;2024-01-30T05:49:28;8.20;99.90
14188;DHT22;7175;51.978;5.330;2024-01-30T05:51:56;8.20;99.90
14188;DHT22;7175;51.978;5.330;2024-01-30T05:54:24;8.20;99.90
14188;DHT22;7175;51.978;5.330;2024-01-30T05:56:52;8.20;99.90
14188;DHT22;7175;51.978;5.330;2024-01-30T05:59:20;8.20;99.90
14188;DHT22;7175;51.978;5.330;2024-01-30T06:01:48;8.30;99.90
14188;DHT22;7175;51.978;5.330;2024-01-30T06:04:17;8.30;99.90
14188;DHT22;7175;51.978;5.330;2024-01-30T06:06:46;8.30;99.90
14188;DHT22;7175;51.978;5.330;2024-01-30T06:09:14;8.30;99.90
14188;DHT22;7175;51.978;5.330;2024-01-30T06:11:43;8.30;99.90
14188;DHT22;7175;51.978;5.330;2024-01-30T06:14:12;8.40;99.90
14188;DHT22;7175;51.978;5.330;2024-01-30T06:16:41;8.40;99.90
14188;DHT22;7175;51.978;5.330;2024-01-30T06:19:11;8.40;99.90
14188;DHT22;7175;51.978;5.330;2024-01-30T06:21:40;8.40;99.90
14188;DHT22;7175;51.978;5.330;2024-01-30T06:24:11;8.40;99.90
14188;DHT22;7175;51.978;5.330;2024-01-30T06:26:40;8.40;99.90
14188;DHT22;7175;51.978;5.330;2024-01-30T06:29:09;8.40;99.90
14188;DHT22;7175;51.978;5.330;2024-01-30T06:31:40;8.40;99.90
14188;DHT22;7175;51.978;5.330;2024-01-30T06:34:10;8.50;99.90
14188;DHT22;7175;51.978;5.330;2024-01-30T06:36:40;8.40;99.90
14188;DHT22;7175;51.978;5.330;2024-01-30T06:39:10;8.50;99.90
14188;DHT22;7175;51.978;5.330;2024-01-30T06:41:39;8.50;99.90
14188;DHT22;7175;51.978;5.330;2024-01-30T06:44:08;8.50;99.90
14188;DHT22;7175;51.978;5.330;2024-01-30T06:46:37;8.50;99.90
14188;DHT22;7175;51.978;5.330;2024-01-30T06:49:06;8.50;99.90
14188;DHT22;7175;51.978;5.330;2024-01-30T06:51:36;8.60;99.90
14188;DHT22;7175;51.978;5.330;2024-01-30T06:54:05;8.60;99.90
14188;DHT22;7175;51.978;5.330;2024-01-30T06:56:36;8.60;99.90
14188;DHT22;7175;51.978;5.330;2024-01-30T06:59:05;8.60;99.90
14188;DHT22;7175;51.978;5.330;2024-01-30T07:01:34;8.60;99.90
14188;DHT22;7175;51.978;5.330;2024-01-30T07:04:03;8.60;99.90
14188;DHT22;7175;51.978;5.330;2024-01-30T07:06:32;8.70;99.90
14188;DHT22;7175;51.978;5.330;2024-01-30T07:09:00;8.70;99.90
14188;DHT22;7175;51.978;5.330;2024-01-30T07:11:28;8.80;99.90
14188;DHT22;7175;51.978;5.330;2024-01-30T07:13:57;8.80;99.90
14188;DHT22;7175;51.978;5.330;2024-01-30T07:16:25;8.90;99.90
14188;DHT22;7175;51.978;5.330;2024-01-30T07:18:53;9.00;99.90
14188;DHT22;7175;51.978;5.330;2024-01-30T07:21:23;9.00;99.90
14188;DHT22;7175;51.978;5.330;2024-01-30T07:23:55;9.10;99.90
14188;DHT22;7175;51.978;5.330;2024-01-30T07:26:23;9.10;99.90
14188;DHT22;7175;51.978;5.330;2024-01-30T07:28:51;9.10;99.90
14188;DHT22;7175;51.978;5.330;2024-01-30T07:31:20;9.20;99.90
14188;DHT22;7175;51.978;5.330;2024-01-30T07:33:50;9.30;99.90
14188;DHT22;7175;51.978;5.330;2024-01-30T07:36:18;9.20;99.90
14188;DHT22;7175;51.978;5.330;2024-01-30T07:38:46;9.20;99.90
14188;DHT22;7175;51.978;5.330;2024-01-30T07:41:14;9.30;99.90
14188;DHT22;7175;51.978;5.330;2024-01-30T07:43:43;9.20;99.90
14188;DHT22;7175;51.978;5.330;2024-01-30T07:46:11;9.30;99.90
14188;DHT22;7175;51.978;5.330;2024-01-30T07:48:41;9.30;99.90
14188;DHT22;7175;51.978;5.330;2024-01-30T07:51:09;9.40;99.90
14188;DHT22;7175;51.978;5.330;2024-01-30T07:53:37;9.50;99.90
14188;DHT22;7175;51.978;5.330;2024-01-30T07:56:05;9.50;99.90
14188;DHT22;7175;51.978;5.330;2024-01-30T07:58:33;9.50;99.90
14188;DHT22;7175;51.978;5.330;2024-01-30T08:01:02;9.50;99.90
14188;DHT22;7175;51.978;5.330;2024-01-30T08:03:30;9.60;99.90
14188;DHT22;7175;51.978;5.330;2024-01-30T08:05:59;9.60;99.90
14188;DHT22;7175;51.978;5.330;2024-01-30T08:08:27;9.60;99.90
14188;DHT22;7175;51.978;5.330;2024-01-30T08:10:55;9.80;99.90
14188;DHT22;7175;51.978;5.330;2024-01-30T08:13:23;9.80;99.90
14188;DHT22;7175;51.978;5.330;2024-01-30T08:15:51;9.90;99.90
14188;DHT22;7175;51.978;5.330;2024-01-30T08:18:19;10.00;99.90
14188;DHT22;7175;51.978;5.330;2024-01-30T08:20:47;10.10;99.90
14188;DHT22;7175;51.978;5.330;2024-01-30T08:23:17;10.20;99.90
14188;DHT22;7175;51.978;5.330;2024-01-30T08:25:45;10.30;99.90
14188;DHT22;7175;51.978;5.330;2024-01-30T08:28:13;10.30;99.90
14188;DHT22;7175;51.978;5.330;2024-01-30T08:30:43;10.40;99.90
14188;DHT22;7175;51.978;5.330;2024-01-30T08:33:11;10.50;99.90
14188;DHT22;7175;51.978;5.330;2024-01-30T08:35:40;10.60;99.90
14188;DHT22;7175;51.978;5.330;2024-01-30T08:38:08;10.60;99.90
14188;DHT22;7175;51.978;5.330;2024-01-30T08:40:37;10.70;99.90
14188;DHT22;7175;51.978;5.330;2024-01-30T08:43:05;10.80;99.90
14188;DHT22;7175;51.978;5.330;2024-01-30T08:45:34;10.80;99.90
14188;DHT22;7175;51.978;5.330;2024-01-30T08:48:03;10.80;99.90
14188;DHT22;7175;51.978;5.330;2024-01-30T08:50:31;10.80;99.90
14188;DHT22;7175;51.978;5.330;2024-01-30T08:52:59;10.90;99.90
14188;DHT22;7175;51.978;5.330;2024-01-30T08:55:27;10.90;99.90
14188;DHT22;7175;51.978;5.330;2024-01-30T08:57:56;11.00;99.90
14188;DHT22;7175;51.978;5.330;2024-01-30T09:00:25;11.00;99.90
14188;DHT22;7175;51.978;5.330;2024-01-30T09:02:53;11.10;99.90
14188;DHT22;7175;51.978;5.330;2024-01-30T09:05:21;11.20;99.90
14188;DHT22;7175;51.978;5.330;2024-01-30T09:07:49;11.30;99.90
14188;DHT22;7175;51.978;5.330;2024-01-30T09:10:17;11.30;99.90
14188;DHT22;7175;51.978;5.330;2024-01-30T09:12:47;11.40;99.90
14188;DHT22;7175;51.978;5.330;2024-01-30T09:15:17;11.40;99.90
14188;DHT22;7175;51.978;5.330;2024-01-30T09:17:46;11.50;99.90
14188;DHT22;7175;51.978;5.330;2024-01-30T09:20:14;11.50;99.90
14188;DHT22;7175;51.978;5.330;2024-01-30T09:22:42;11.50;99.90
14188;DHT22;7175;51.978;5.330;2024-01-30T09:25:11;11.60;99.90
14188;DHT22;7175;51.978;5.330;2024-01-30T09:27:39;11.60;99.90
14188;DHT22;7175;51.978;5.330;2024-01-30T09:30:08;11.60;99.90
14188;DHT22;7175;51.978;5.330;2024-01-30T09:32:39;11.60;99.90
14188;DHT22;7175;51.978;5.330;2024-01-30T09:35:08;11.60;99.90
14188;DHT22;7175;51.978;5.330;2024-01-30T09:37:36;11.60;99.90
14188;DHT22;7175;51.978;5.330;2024-01-30T09:40:06;11.50;99.90
14188;DHT22;7175;51.978;5.330;2024-01-30T09:42:35;11.50;99.90
14188;DHT22;7175;51.978;5.330;2024-01-30T09:45:04;11.50;99.90
14188;DHT22;7175;51.978;5.330;2024-01-30T09:47:32;11.50;99.90
14188;DHT22;7175;51.978;5.330;2024-01-30T09:50:06;11.60;99.90
14188;DHT22;7175;51.978;5.330;2024-01-30T09:52:35;11.60;99.90
14188;DHT22;7175;51.978;5.330;2024-01-30T09:55:04;11.60;99.90
14188;DHT22;7175;51.978;5.330;2024-01-30T09:57:32;11.60;99.90
14188;DHT22;7175;51.978;5.330;2024-01-30T10:00:00;11.60;99.90
14188;DHT22;7175;51.978;5.330;2024-01-30T10:02:30;11.60;99.90
14188;DHT22;7175;51.978;5.330;2024-01-30T10:04:59;11.60;99.90
14188;DHT22;7175;51.978;5.330;2024-01-30T10:07:29;11.60;99.90
14188;DHT22;7175;51.978;5.330;2024-01-30T10:09:57;11.60;99.90
14188;DHT22;7175;51.978;5.330;2024-01-30T10:12:26;11.70;99.90
14188;DHT22;7175;51.978;5.330;2024-01-30T10:14:56;11.60;99.90
14188;DHT22;7175;51.978;5.330;2024-01-30T10:17:25;11.60;99.90
14188;DHT22;7175;51.978;5.330;2024-01-30T10:19:59;11.70;99.90
14188;DHT22;7175;51.978;5.330;2024-01-30T10:22:30;11.70;99.90
14188;DHT22;7175;51.978;5.330;2024-01-30T10:24:58;11.80;99.90
14188;DHT22;7175;51.978;5.330;2024-01-30T10:27:32;11.90;99.90
14188;DHT22;7175;51.978;5.330;2024-01-30T10:30:00;11.90;99.90
14188;DHT22;7175;51.978;5.330;2024-01-30T10:32:28;12.00;99.90
14188;DHT22;7175;51.978;5.330;2024-01-30T10:34:56;12.10;99.90
14188;DHT22;7175;51.978;5.330;2024-01-30T10:37:25;12.40;99.90
14188;DHT22;7175;51.978;5.330;2024-01-30T10:39:56;12.50;99.90
14188;DHT22;7175;51.978;5.330;2024-01-30T10:42:31;12.40;99.90
14188;DHT22;7175;51.978;5.330;2024-01-30T10:45:05;12.30;99.90
14188;DHT22;7175;51.978;5.330;2024-01-30T10:47:36;12.50;99.90
14188;DHT22;7175;51.978;5.330;2024-01-30T10:50:05;12.40;99.90
14188;DHT22;7175;51.978;5.330;2024-01-30T10:52:34;12.30;99.90
14188;DHT22;7175;51.978;5.330;2024-01-30T10:55:04;12.30;99.90
14188;DHT22;7175;51.978;5.330;2024-01-30T10:57:34;12.30;99.90
14188;DHT22;7175;51.978;5.330;2024-01-30T11:00:05;12.20;99.90
14188;DHT22;7175;51.978;5.330;2024-01-30T11:02:38;12.20;99.90
14188;DHT22;7175;51.978;5.330;2024-01-30T11:05:08;12.20;99.90
14188;DHT22;7175;51.978;5.330;2024-01-30T11:07:38;12.20;99.90
14188;DHT22;7175;51.978;5.330;2024-01-30T11:10:08;12.20;99.90
14188;DHT22;7175;51.978;5.330;2024-01-30T11:12:40;12.40;99.90
14188;DHT22;7175;51.978;5.330;2024-01-30T11:15:12;12.50;99.90
14188;DHT22;7175;51.978;5.330;2024-01-30T11:17:45;12.40;99.90
14188;DHT22;7175;51.978;5.330;2024-01-30T11:20:15;12.40;99.90
14188;DHT22;7175;51.978;5.330;2024-01-30T11:22:45;12.30;99.90
14188;DHT22;7175;51.978;5.330;2024-01-30T11:25:16;12.40;99.90
14188;DHT22;7175;51.978;5.330;2024-01-30T11:27:45;12.40;99.90
14188;DHT22;7175;51.978;5.330;2024-01-30T11:30:22;12.50;99.90
14188;DHT22;7175;51.978;5.330;2024-01-30T11:33:00;12.60;99.90
14188;DHT22;7175;51.978;5.330;2024-01-30T11:35:30;12.60;99.90
14188;DHT22;7175;51.978;5.330;2024-01-30T11:37:58;12.60;99.90
14188;DHT22;7175;51.978;5.330;2024-01-30T11:40:29;12.50;99.90
14188;DHT22;7175;51.978;5.330;2024-01-30T11:42:59;12.40;99.90
14188;DHT22;7175;51.978;5.330;2024-01-30T11:45:28;12.30;99.90
14188;DHT22;7175;51.978;5.330;2024-01-30T11:47:56;12.10;99.90
14188;DHT22;7175;51.978;5.330;2024-01-30T11:50:27;12.10;99.90
14188;DHT22;7175;51.978;5.330;2024-01-30T11:52:55;11.90;99.90
14188;DHT22;7175;51.978;5.330;2024-01-30T11:55:23;11.70;99.90
14188;DHT22;7175;51.978;5.330;2024-01-30T11:57:56;11.60;99.90
14188;DHT22;7175;51.978;5.330;2024-01-30T12:00:25;11.50;99.90
14188;DHT22;7175;51.978;5.330;2024-01-30T12:02:55;11.70;99.90
14188;DHT22;7175;51.978;5.330;2024-01-30T12:05:24;11.70;99.90
14188;DHT22;7175;51.978;5.330;2024-01-30T12:07:55;11.70;99.90
14188;DHT22;7175;51.978;5.330;2024-01-30T12:10:26;12.00;99.90
14188;DHT22;7175;51.978;5.330;2024-01-30T12:12:57;11.90;99.90
14188;DHT22;7175;51.978;5.330;2024-01-30T12:15:26;11.80;99.90
14188;DHT22;7175;51.978;5.330;2024-01-30T12:18:04;11.80;99.90
14188;DHT22;7175;51.978;5.330;2024-01-30T12:20:33;11.90;99.90
14188;DHT22;7175;51.978;5.330;2024-01-30T12:23:01;11.80;99.90
14188;DHT22;7175;51.978;5.330;2024-01-30T12:25:29;11.90;99.90
14188;DHT22;7175;51.978;5.330;2024-01-30T12:27:59;11.80;99.90
14188;DHT22;7175;51.978;5.330;2024-01-30T12:30:27;11.70;99.90
14188;DHT22;7175;51.978;5.330;2024-01-30T12:32:56;11.60;99.90
14188;DHT22;7175;51.978;5.330;2024-01-30T12:35:25;11.40;99.90
14188;DHT22;7175;51.978;5.330;2024-01-30T12:37:56;11.20;99.90
14188;DHT22;7175;51.978;5.330;2024-01-30T12:40:25;11.10;99.90
14188;DHT22;7175;51.978;5.330;2024-01-30T12:42:53;11.00;99.90
14188;DHT22;7175;51.978;5.330;2024-01-30T12:45:22;10.90;99.90
14188;DHT22;7175;51.978;5.330;2024-01-30T12:47:50;10.80;99.90
14188;DHT22;7175;51.978;5.330;2024-01-30T12:50:20;10.70;99.90
14188;DHT22;7175;51.978;5.330;2024-01-30T12:52:48;10.50;99.90
14188;DHT22;7175;51.978;5.330;2024-01-30T12:55:16;10.50;99.90
14188;DHT22;7175;51.978;5.330;2024-01-30T12:57:45;10.50;99.90
14188;DHT22;7175;51.978;5.330;2024-01-30T13:00:13;10.40;99.90
14188;DHT22;7175;51.978;5.330;2024-01-30T13:02:45;10.40;99.90
14188;DHT22;7175;51.978;5.330;2024-01-30T13:05:13;10.40;99.90
14188;DHT22;7175;51.978;5.330;2024-01-30T13:07:41;10.40;99.90
14188;DHT22;7175;51.978;5.330;2024-01-30T13:10:10;10.40;99.90
14188;DHT22;7175;51.978;5.330;2024-01-30T13:12:38;10.40;99.90
14188;DHT22;7175;51.978;5.330;2024-01-30T13:15:06;10.40;99.90
14188;DHT22;7175;51.978;5.330;2024-01-30T13:17:35;10.50;99.90
14188;DHT22;7175;51.978;5.330;2024-01-30T13:20:09;10.50;99.90
14188;DHT22;7175;51.978;5.330;2024-01-30T13:22:38;10.50;99.90
14188;DHT22;7175;51.978;5.330;2024-01-30T13:25:07;10.50;99.90
14188;DHT22;7175;51.978;5.330;2024-01-30T13:27:36;10.60;99.90
14188;DHT22;7175;51.978;5.330;2024-01-30T13:30:07;10.70;99.90
14188;DHT22;7175;51.978;5.330;2024-01-30T13:32:36;10.80;99.90
14188;DHT22;7175;51.978;5.330;2024-01-30T13:35:05;10.80;99.90
14188;DHT22;7175;51.978;5.330;2024-01-30T13:37:34;10.80;99.90
14188;DHT22;7175;51.978;5.330;2024-01-30T13:40:03;10.80;99.90
14188;DHT22;7175;51.978;5.330;2024-01-30T13:42:37;10.80;99.90
14188;DHT22;7175;51.978;5.330;2024-01-30T13:45:06;10.60;99.90
14188;DHT22;7175;51.978;5.330;2024-01-30T13:47:37;10.50;99.90
14188;DHT22;7175;51.978;5.330;2024-01-30T13:50:05;10.60;99.90
14188;DHT22;7175;51.978;5.330;2024-01-30T13:52:36;10.50;99.90
14188;DHT22;7175;51.978;5.330;2024-01-30T13:55:11;10.50;99.90
14188;DHT22;7175;51.978;5.330;2024-01-30T13:57:40;10.40;99.90
14188;DHT22;7175;51.978;5.330;2024-01-30T14:00:09;10.40;99.90
14188;DHT22;7175;51.978;5.330;2024-01-30T14:02:38;10.30;99.90
14188;DHT22;7175;51.978;5.330;2024-01-30T14:05:07;10.20;99.90
14188;DHT22;7175;51.978;5.330;2024-01-30T14:07:37;10.20;99.90
14188;DHT22;7175;51.978;5.330;2024-01-30T14:10:07;10.20;99.90
14188;DHT22;7175;51.978;5.330;2024-01-30T14:12:39;10.10;99.90
14188;DHT22;7175;51.978;5.330;2024-01-30T14:15:08;10.10;99.90
14188;DHT22;7175;51.978;5.330;2024-01-30T14:17:53;10.10;99.90
14188;DHT22;7175;51.978;5.330;2024-01-30T14:20:22;10.00;99.90
14188;DHT22;7175;51.978;5.330;2024-01-30T14:22:51;10.10;99.90
14188;DHT22;7175;51.978;5.330;2024-01-30T14:25:20;10.10;99.90
14188;DHT22;7175;51.978;5.330;2024-01-30T14:27:48;10.00;99.90
14188;DHT22;7175;51.978;5.330;2024-01-30T14:30:17;10.00;99.90
14188;DHT22;7175;51.978;5.330;2024-01-30T14:32:45;10.00;99.90
14188;DHT22;7175;51.978;5.330;2024-01-30T14:35:13;10.00;99.90
14188;DHT22;7175;51.978;5.330;2024-01-30T14:37:42;9.90;99.90
14188;DHT22;7175;51.978;5.330;2024-01-30T14:40:11;10.00;99.90
14188;DHT22;7175;51.978;5.330;2024-01-30T14:42:39;10.00;99.90
14188;DHT22;7175;51.978;5.330;2024-01-30T14:45:08;10.00;99.90
14188;DHT22;7175;51.978;5.330;2024-01-30T14:47:36;9.90;99.90
14188;DHT22;7175;51.978;5.330;2024-01-30T14:50:05;9.90;99.90
14188;DHT22;7175;51.978;5.330;2024-01-30T14:52:35;9.80;99.90
14188;DHT22;7175;51.978;5.330;2024-01-30T14:55:04;9.80;99.90
14188;DHT22;7175;51.978;5.330;2024-01-30T14:57:34;9.70;99.90
14188;DHT22;7175;51.978;5.330;2024-01-30T15:00:05;9.80;99.90
14188;DHT22;7175;51.978;5.330;2024-01-30T15:02:34;9.70;99.90
14188;DHT22;7175;51.978;5.330;2024-01-30T15:05:03;9.70;99.90
14188;DHT22;7175;51.978;5.330;2024-01-30T15:07:31;9.70;99.90
14188;DHT22;7175;51.978;5.330;2024-01-30T15:10:07;9.60;99.90
14188;DHT22;7175;51.978;5.330;2024-01-30T15:12:37;9.50;99.90
14188;DHT22;7175;51.978;5.330;2024-01-30T15:15:07;9.50;99.90
14188;DHT22;7175;51.978;5.330;2024-01-30T15:17:37;9.50;99.90
14188;DHT22;7175;51.978;5.330;2024-01-30T15:20:06;9.50;99.90
14188;DHT22;7175;51.978;5.330;2024-01-30T15:22:35;9.60;99.90
14188;DHT22;7175;51.978;5.330;2024-01-30T15:25:04;9.40;99.90
14188;DHT22;7175;51.978;5.330;2024-01-30T15:27:33;9.40;99.90
14188;DHT22;7175;51.978;5.330;2024-01-30T15:30:06;9.40;99.90
14188;DHT22;7175;51.978;5.330;2024-01-30T15:32:35;9.30;99.90
14188;DHT22;7175;51.978;5.330;2024-01-30T15:35:05;9.40;99.90
14188;DHT22;7175;51.978;5.330;2024-01-30T15:37:34;9.40;99.90
14188;DHT22;7175;51.978;5.330;2024-01-30T15:40:04;9.40;99.90
14188;DHT22;7175;51.978;5.330;2024-01-30T15:42:34;9.30;99.90
14188;DHT22;7175;51.978;5.330;2024-01-30T15:45:05;9.30;99.90
14188;DHT22;7175;51.978;5.330;2024-01-30T15:47:34;9.30;99.90
14188;DHT22;7175;51.978;5.330;2024-01-30T15:50:05;9.30;99.90
14188;DHT22;7175;51.978;5.330;2024-01-30T15:52:35;9.20;99.90
14188;DHT22;7175;51.978;5.330;2024-01-30T15:55:04;9.20;99.90
14188;DHT22;7175;51.978;5.330;2024-01-30T15:57:32;9.20;99.90
14188;DHT22;7175;51.978;5.330;2024-01-30T16:00:01;9.20;99.90
14188;DHT22;7175;51.978;5.330;2024-01-30T16:02:32;9.10;99.90
14188;DHT22;7175;51.978;5.330;2024-01-30T16:05:01;9.10;99.90